Brewster, Nebraska
Current Conditions -  °F | °C
As of 1:55 PM on Friday 24 Oct 2014 (Local Time) from KTIF Reporting Station
Clear Clear  
Wind Chill: 80°   Ceiling: Unl
Heat Index: 80°   Visibility: 10mi
Dew Point: 37°   Wind: 8mph
Humidity: 21%   Direction: 320°NW
Pressure: 29.98"   Gusts: NA
Location:  41.94°N, 99.86°W
Report Text: KTIF 241855Z AUTO 32007KT 10SM CLR 27/03 A2998 RMK AO2 T02660025
Loading
Personal Weather Stations






























Interactive Weather Map
Tropical Storm Tracking
New forecast layout! Learn more

10-Day Weather Forecast

Advertisements
Track Severe Weather on mobile